sensor_id;sensor_type;location;lat;lon;timestamp;pressure;altitude;pressure_sealevel;temperature;humidity
56038;BME280;41907;47.848;9.000;2023-07-02T00:01:40;95346.66;;;17.41;100.00
56038;BME280;41907;47.848;9.000;2023-07-02T00:04:05;95341.59;;;17.40;100.00
56038;BME280;41907;47.848;9.000;2023-07-02T00:06:34;95336.28;;;17.43;100.00
56038;BME280;41907;47.848;9.000;2023-07-02T00:09:05;95329.38;;;17.46;100.00
56038;BME280;41907;47.848;9.000;2023-07-02T00:11:31;95330.38;;;17.34;100.00
56038;BME280;41907;47.848;9.000;2023-07-02T00:13:56;95335.25;;;17.29;100.00
56038;BME280;41907;47.848;9.000;2023-07-02T00:16:21;95339.41;;;17.23;100.00
56038;BME280;41907;47.848;9.000;2023-07-02T00:18:46;95338.69;;;17.26;100.00
56038;BME280;41907;47.848;9.000;2023-07-02T00:21:17;95337.66;;;17.11;100.00
56038;BME280;41907;47.848;9.000;2023-07-02T00:23:44;95343.31;;;17.25;100.00
56038;BME280;41907;47.848;9.000;2023-07-02T00:26:09;95341.97;;;17.16;100.00
56038;BME280;41907;47.848;9.000;2023-07-02T00:28:34;95347.34;;;16.93;100.00
56038;BME280;41907;47.848;9.000;2023-07-02T00:30:59;95346.63;;;16.96;100.00
56038;BME280;41907;47.848;9.000;2023-07-02T00:33:26;95345.34;;;16.90;100.00
56038;BME280;41907;47.848;9.000;2023-07-02T00:35:51;95351.81;;;16.85;100.00
56038;BME280;41907;47.848;9.000;2023-07-02T00:38:16;95340.25;;;16.85;100.00
56038;BME280;41907;47.848;9.000;2023-07-02T00:40:41;95338.69;;;16.84;100.00
56038;BME280;41907;47.848;9.000;2023-07-02T00:43:07;95339.28;;;16.73;100.00
56038;BME280;41907;47.848;9.000;2023-07-02T00:45:37;95344.22;;;16.71;100.00
56038;BME280;41907;47.848;9.000;2023-07-02T00:48:05;95342.75;;;16.74;100.00
56038;BME280;41907;47.848;9.000;2023-07-02T00:50:30;95330.72;;;16.68;100.00
56038;BME280;41907;47.848;9.000;2023-07-02T00:52:55;95331.97;;;16.74;100.00
56038;BME280;41907;47.848;9.000;2023-07-02T00:55:20;95338.34;;;16.85;100.00
56038;BME280;41907;47.848;9.000;2023-07-02T00:57:46;95335.56;;;16.82;100.00
56038;BME280;41907;47.848;9.000;2023-07-02T01:00:11;95341.81;;;16.86;100.00
56038;BME280;41907;47.848;9.000;2023-07-02T01:02:37;95337.63;;;16.88;100.00
56038;BME280;41907;47.848;9.000;2023-07-02T01:05:03;95342.25;;;16.88;100.00
56038;BME280;41907;47.848;9.000;2023-07-02T01:07:28;95344.28;;;16.94;100.00
56038;BME280;41907;47.848;9.000;2023-07-02T01:09:54;95339.03;;;17.01;100.00
56038;BME280;41907;47.848;9.000;2023-07-02T01:12:19;95333.34;;;17.06;100.00
56038;BME280;41907;47.848;9.000;2023-07-02T01:14:50;95332.97;;;17.08;100.00
56038;BME280;41907;47.848;9.000;2023-07-02T01:17:16;95324.19;;;17.11;100.00
56038;BME280;41907;47.848;9.000;2023-07-02T01:19:48;95328.00;;;17.10;100.00
56038;BME280;41907;47.848;9.000;2023-07-02T01:22:21;95319.94;;;17.10;100.00
56038;BME280;41907;47.848;9.000;2023-07-02T01:24:47;95330.28;;;17.08;100.00
56038;BME280;41907;47.848;9.000;2023-07-02T01:27:13;95336.09;;;17.10;100.00
56038;BME280;41907;47.848;9.000;2023-07-02T01:29:39;95339.22;;;17.12;100.00
56038;BME280;41907;47.848;9.000;2023-07-02T01:32:05;95341.19;;;17.15;100.00
56038;BME280;41907;47.848;9.000;2023-07-02T01:34:30;95343.75;;;17.08;100.00
56038;BME280;41907;47.848;9.000;2023-07-02T01:36:56;95339.56;;;17.10;100.00
56038;BME280;41907;47.848;9.000;2023-07-02T01:39:21;95340.34;;;17.11;100.00
56038;BME280;41907;47.848;9.000;2023-07-02T01:41:54;95341.00;;;17.04;100.00
56038;BME280;41907;47.848;9.000;2023-07-02T01:44:20;95341.72;;;17.01;100.00
56038;BME280;41907;47.848;9.000;2023-07-02T01:46:45;95342.91;;;17.04;100.00
56038;BME280;41907;47.848;9.000;2023-07-02T01:49:14;95343.28;;;17.02;100.00
56038;BME280;41907;47.848;9.000;2023-07-02T01:51:39;95347.44;;;17.00;100.00
56038;BME280;41907;47.848;9.000;2023-07-02T01:54:04;95339.44;;;17.03;100.00
56038;BME280;41907;47.848;9.000;2023-07-02T01:56:29;95344.13;;;17.06;100.00
56038;BME280;41907;47.848;9.000;2023-07-02T01:58:55;95340.22;;;17.04;100.00
56038;BME280;41907;47.848;9.000;2023-07-02T02:01:20;95342.13;;;17.03;100.00
56038;BME280;41907;47.848;9.000;2023-07-02T02:03:45;95339.81;;;17.02;100.00
56038;BME280;41907;47.848;9.000;2023-07-02T02:06:10;95336.31;;;17.01;100.00
56038;BME280;41907;47.848;9.000;2023-07-02T02:08:36;95343.97;;;16.99;100.00
56038;BME280;41907;47.848;9.000;2023-07-02T02:11:01;95347.06;;;16.98;100.00
56038;BME280;41907;47.848;9.000;2023-07-02T02:13:26;95347.44;;;17.00;100.00
56038;BME280;41907;47.848;9.000;2023-07-02T02:15:51;95347.06;;;16.98;100.00
56038;BME280;41907;47.848;9.000;2023-07-02T02:18:17;95340.47;;;16.95;100.00
56038;BME280;41907;47.848;9.000;2023-07-02T02:20:42;95340.88;;;16.97;100.00
56038;BME280;41907;47.848;9.000;2023-07-02T02:23:07;95337.06;;;16.98;100.00
56038;BME280;41907;47.848;9.000;2023-07-02T02:25:33;95338.97;;;16.98;100.00
56038;BME280;41907;47.848;9.000;2023-07-02T02:27:58;95339.75;;;16.98;100.00
56038;BME280;41907;47.848;9.000;2023-07-02T02:30:23;95339.75;;;16.98;100.00
56038;BME280;41907;47.848;9.000;2023-07-02T02:32:48;95350.53;;;16.98;100.00
56038;BME280;41907;47.848;9.000;2023-07-02T02:35:14;95339.81;;;17.02;100.00
56038;BME280;41907;47.848;9.000;2023-07-02T02:37:39;95344.47;;;17.05;100.00
56038;BME280;41907;47.848;9.000;2023-07-02T02:40:05;95337.53;;;17.04;100.00
56038;BME280;41907;47.848;9.000;2023-07-02T02:42:31;95339.09;;;17.05;100.00
56038;BME280;41907;47.848;9.000;2023-07-02T02:44:56;95346.03;;;17.06;100.00
56038;BME280;41907;47.848;9.000;2023-07-02T02:47:21;95346.31;;;17.01;100.00
56038;BME280;41907;47.848;9.000;2023-07-02T02:49:46;95345.63;;;17.04;100.00
56038;BME280;41907;47.848;9.000;2023-07-02T02:52:12;95348.66;;;17.02;100.00
56038;BME280;41907;47.848;9.000;2023-07-02T02:54:39;95354.84;;;17.03;100.00
56038;BME280;41907;47.848;9.000;2023-07-02T02:57:04;95361.44;;;17.05;100.00
56038;BME280;41907;47.848;9.000;2023-07-02T02:59:29;95357.94;;;17.05;100.00
56038;BME280;41907;47.848;9.000;2023-07-02T03:01:55;95351.84;;;17.08;100.00
56038;BME280;41907;47.848;9.000;2023-07-02T03:04:20;95353.78;;;17.07;100.00
56038;BME280;41907;47.848;9.000;2023-07-02T03:06:49;95357.22;;;17.08;100.00
56038;BME280;41907;47.848;9.000;2023-07-02T03:09:15;95358.78;;;17.09;100.00
56038;BME280;41907;47.848;9.000;2023-07-02T03:11:40;95358.00;;;17.08;100.00
56038;BME280;41907;47.848;9.000;2023-07-02T03:14:05;95353.78;;;17.07;100.00
56038;BME280;41907;47.848;9.000;2023-07-02T03:16:31;95359.91;;;17.08;100.00
56038;BME280;41907;47.848;9.000;2023-07-02T03:18:58;95357.66;;;17.10;100.00
56038;BME280;41907;47.848;9.000;2023-07-02T03:21:24;95357.94;;;17.05;100.00
56038;BME280;41907;47.848;9.000;2023-07-02T03:23:49;95362.22;;;17.06;100.00
56038;BME280;41907;47.848;9.000;2023-07-02T03:26:14;95369.44;;;17.02;100.00
56038;BME280;41907;47.848;9.000;2023-07-02T03:28:39;95365.59;;;17.03;100.00
56038;BME280;41907;47.848;9.000;2023-07-02T03:31:04;95372.22;;;17.05;100.00
56038;BME280;41907;47.848;9.000;2023-07-02T03:33:31;95371.84;;;17.07;100.00
56038;BME280;41907;47.848;9.000;2023-07-02T03:35:57;95366.47;;;17.07;100.00
56038;BME280;41907;47.848;9.000;2023-07-02T03:38:22;95373.34;;;17.04;100.00
56038;BME280;41907;47.848;9.000;2023-07-02T03:40:47;95370.66;;;17.04;100.00
56038;BME280;41907;47.848;9.000;2023-07-02T03:43:13;95376.50;;;17.10;100.00
56038;BME280;41907;47.848;9.000;2023-07-02T03:45:38;95378.59;;;16.97;100.00
56038;BME280;41907;47.848;9.000;2023-07-02T03:48:03;95378.81;;;16.89;100.00
56038;BME280;41907;47.848;9.000;2023-07-02T03:50:28;95381.78;;;16.84;100.00
56038;BME280;41907;47.848;9.000;2023-07-02T03:52:54;95382.13;;;16.82;100.00
56038;BME280;41907;47.848;9.000;2023-07-02T03:55:19;95392.69;;;16.91;100.00
56038;BME280;41907;47.848;9.000;2023-07-02T03:57:44;95380.44;;;16.93;100.00
56038;BME280;41907;47.848;9.000;2023-07-02T04:00:10;95383.84;;;16.90;100.00
56038;BME280;41907;47.848;9.000;2023-07-02T04:02:36;95394.56;;;16.87;100.00
56038;BME280;41907;47.848;9.000;2023-07-02T04:05:01;95385.34;;;16.88;100.00
56038;BME280;41907;47.848;9.000;2023-07-02T04:07:27;95394.75;;;16.97;100.00
56038;BME280;41907;47.848;9.000;2023-07-02T04:09:53;95391.66;;;16.95;100.00
56038;BME280;41907;47.848;9.000;2023-07-02T04:12:18;95397.88;;;16.99;100.00
56038;BME280;41907;47.848;9.000;2023-07-02T04:14:43;95401.56;;;16.91;100.00
56038;BME280;41907;47.848;9.000;2023-07-02T04:17:09;95400.97;;;17.01;100.00
56038;BME280;41907;47.848;9.000;2023-07-02T04:19:34;95402.41;;;16.95;100.00
56038;BME280;41907;47.848;9.000;2023-07-02T04:21:59;95402.41;;;16.95;100.00
56038;BME280;41907;47.848;9.000;2023-07-02T04:24:24;95404.47;;;17.02;100.00
56038;BME280;41907;47.848;9.000;2023-07-02T04:26:51;95410.72;;;17.06;100.00
56038;BME280;41907;47.848;9.000;2023-07-02T04:29:16;95412.31;;;17.10;100.00
56038;BME280;41907;47.848;9.000;2023-07-02T04:31:41;95411.25;;;17.15;100.00
56038;BME280;41907;47.848;9.000;2023-07-02T04:34:06;95419.34;;;17.15;100.00
56038;BME280;41907;47.848;9.000;2023-07-02T04:36:31;95414.00;;;17.19;100.00
56038;BME280;41907;47.848;9.000;2023-07-02T04:38:57;95419.81;;;17.21;100.00
56038;BME280;41907;47.848;9.000;2023-07-02T04:41:22;95414.88;;;17.23;100.00
56038;BME280;41907;47.848;9.000;2023-07-02T04:43:47;95409.91;;;17.25;100.00
56038;BME280;41907;47.848;9.000;2023-07-02T04:46:13;95406.44;;;17.24;100.00
56038;BME280;41907;47.848;9.000;2023-07-02T04:48:38;95414.09;;;17.22;100.00
56038;BME280;41907;47.848;9.000;2023-07-02T04:51:04;95411.47;;;17.26;100.00
56038;BME280;41907;47.848;9.000;2023-07-02T04:53:29;95415.00;;;17.30;100.00
56038;BME280;41907;47.848;9.000;2023-07-02T04:55:54;95416.91;;;17.29;100.00
56038;BME280;41907;47.848;9.000;2023-07-02T04:58:20;95422.78;;;17.35;100.00
56038;BME280;41907;47.848;9.000;2023-07-02T05:00:45;95420.50;;;17.37;100.00
56038;BME280;41907;47.848;9.000;2023-07-02T05:03:10;95424.75;;;17.38;100.00
56038;BME280;41907;47.848;9.000;2023-07-02T05:05:35;95426.66;;;17.37;100.00
56038;BME280;41907;47.848;9.000;2023-07-02T05:08:01;95446.19;;;17.31;100.00
56038;BME280;41907;47.848;9.000;2023-07-02T05:10:26;95438.97;;;17.35;100.00
56038;BME280;41907;47.848;9.000;2023-07-02T05:12:51;95448.25;;;17.37;100.00
56038;BME280;41907;47.848;9.000;2023-07-02T05:15:16;95450.53;;;17.35;100.00
56038;BME280;41907;47.848;9.000;2023-07-02T05:17:41;95447.47;;;17.37;100.00
56038;BME280;41907;47.848;9.000;2023-07-02T05:20:07;95447.19;;;17.42;100.00
56038;BME280;41907;47.848;9.000;2023-07-02T05:22:32;95451.78;;;17.41;100.00
56038;BME280;41907;47.848;9.000;2023-07-02T05:24:57;95444.56;;;17.45;100.00
56038;BME280;41907;47.848;9.000;2023-07-02T05:27:23;95460.00;;;17.48;100.00
56038;BME280;41907;47.848;9.000;2023-07-02T05:29:48;95463.56;;;17.53;100.00
56038;BME280;41907;47.848;9.000;2023-07-02T05:32:13;95463.25;;;17.58;100.00
56038;BME280;41907;47.848;9.000;2023-07-02T05:34:38;95460.63;;;17.61;100.00
56038;BME280;41907;47.848;9.000;2023-07-02T05:37:04;95459.41;;;17.59;100.00
56038;BME280;41907;47.848;9.000;2023-07-02T05:39:29;95461.22;;;17.51;100.00
56038;BME280;41907;47.848;9.000;2023-07-02T05:41:55;95463.84;;;17.47;100.00
56038;BME280;41907;47.848;9.000;2023-07-02T05:44:21;95464.69;;;17.52;100.00
56038;BME280;41907;47.848;9.000;2023-07-02T05:46:46;95467.16;;;17.60;100.00
56038;BME280;41907;47.848;9.000;2023-07-02T05:49:11;95470.66;;;17.41;100.00
56038;BME280;41907;47.848;9.000;2023-07-02T05:51:36;95477.84;;;17.34;100.00
56038;BME280;41907;47.848;9.000;2023-07-02T05:54:02;95473.84;;;17.47;100.00
56038;BME280;41907;47.848;9.000;2023-07-02T05:56:27;95470.91;;;17.56;100.00
56038;BME280;41907;47.848;9.000;2023-07-02T05:58:52;95479.00;;;17.56;100.00
56038;BME280;41907;47.848;9.000;2023-07-02T06:01:18;95480.75;;;17.64;100.00
56038;BME280;41907;47.848;9.000;2023-07-02T06:03:43;95471.09;;;17.63;100.00
56038;BME280;41907;47.848;9.000;2023-07-02T06:06:10;95479.28;;;17.70;100.00
56038;BME280;41907;47.848;9.000;2023-07-02T06:08:36;95494.69;;;17.69;100.00
56038;BME280;41907;47.848;9.000;2023-07-02T06:11:01;95490.38;;;17.65;100.00
56038;BME280;41907;47.848;9.000;2023-07-02T06:13:26;95486.50;;;17.62;100.00
56038;BME280;41907;47.848;9.000;2023-07-02T06:15:52;95492.72;;;17.66;100.00
56038;BME280;41907;47.848;9.000;2023-07-02T06:18:17;95488.38;;;17.62;100.00
56038;BME280;41907;47.848;9.000;2023-07-02T06:20:42;95495.97;;;17.56;100.00
56038;BME280;41907;47.848;9.000;2023-07-02T06:23:08;95501.34;;;17.56;100.00
56038;BME280;41907;47.848;9.000;2023-07-02T06:25:33;95500.88;;;17.51;100.00
56038;BME280;41907;47.848;9.000;2023-07-02T06:27:58;95507.53;;;17.57;100.00
56038;BME280;41907;47.848;9.000;2023-07-02T06:30:24;95501.34;;;17.56;100.00
56038;BME280;41907;47.848;9.000;2023-07-02T06:32:49;95514.91;;;17.60;100.00
56038;BME280;41907;47.848;9.000;2023-07-02T06:35:15;95513.22;;;17.52;100.00
56038;BME280;41907;47.848;9.000;2023-07-02T06:37:40;95516.16;;;17.62;100.00
56038;BME280;41907;47.848;9.000;2023-07-02T06:40:05;95527.06;;;17.69;100.00
56038;BME280;41907;47.848;9.000;2023-07-02T06:42:31;95521.44;;;17.78;100.00
56038;BME280;41907;47.848;9.000;2023-07-02T06:44:57;95525.34;;;17.80;100.00
56038;BME280;41907;47.848;9.000;2023-07-02T06:47:23;95530.16;;;17.91;100.00
56038;BME280;41907;47.848;9.000;2023-07-02T06:49:48;95527.16;;;17.96;100.00
56038;BME280;41907;47.848;9.000;2023-07-02T06:52:13;95522.25;;;18.01;100.00
56038;BME280;41907;47.848;9.000;2023-07-02T06:54:38;95527.69;;;18.05;100.00
56038;BME280;41907;47.848;9.000;2023-07-02T06:57:04;95535.84;;;18.08;100.00
56038;BME280;41907;47.848;9.000;2023-07-02T06:59:30;95536.06;;;18.22;100.00
56038;BME280;41907;47.848;9.000;2023-07-02T07:01:55;95537.81;;;18.34;100.00
56038;BME280;41907;47.848;9.000;2023-07-02T07:04:20;95539.16;;;18.70;99.66
56038;BME280;41907;47.848;9.000;2023-07-02T07:06:45;95540.50;;;19.10;98.06
56038;BME280;41907;47.848;9.000;2023-07-02T07:09:10;95542.03;;;19.71;93.97
56038;BME280;41907;47.848;9.000;2023-07-02T07:11:36;95547.28;;;20.82;91.51
56038;BME280;41907;47.848;9.000;2023-07-02T07:14:01;95552.41;;;21.70;85.92
56038;BME280;41907;47.848;9.000;2023-07-02T07:16:26;95544.78;;;22.68;80.66
56038;BME280;41907;47.848;9.000;2023-07-02T07:18:52;95552.91;;;23.14;74.39
56038;BME280;41907;47.848;9.000;2023-07-02T07:21:17;95553.56;;;23.60;72.03
56038;BME280;41907;47.848;9.000;2023-07-02T07:23:42;95549.75;;;24.17;68.89
56038;BME280;41907;47.848;9.000;2023-07-02T07:26:08;95550.03;;;24.40;65.33
56038;BME280;41907;47.848;9.000;2023-07-02T07:28:33;95562.34;;;23.96;67.35
56038;BME280;41907;47.848;9.000;2023-07-02T07:30:58;95551.91;;;23.84;65.23
56038;BME280;41907;47.848;9.000;2023-07-02T07:33:24;95568.47;;;24.11;65.42
56038;BME280;41907;47.848;9.000;2023-07-02T07:35:49;95549.19;;;23.81;65.24
56038;BME280;41907;47.848;9.000;2023-07-02T07:38:14;95558.38;;;23.10;68.46
56038;BME280;41907;47.848;9.000;2023-07-02T07:40:40;95561.50;;;23.02;70.92
56038;BME280;41907;47.848;9.000;2023-07-02T07:43:05;95558.00;;;22.87;70.04
56038;BME280;41907;47.848;9.000;2023-07-02T07:45:30;95555.28;;;22.87;72.42
56038;BME280;41907;47.848;9.000;2023-07-02T07:47:55;95554.88;;;22.67;70.38
56038;BME280;41907;47.848;9.000;2023-07-02T07:50:21;95563.44;;;22.65;72.38
56038;BME280;41907;47.848;9.000;2023-07-02T07:52:47;95561.09;;;22.60;73.47
56038;BME280;41907;47.848;9.000;2023-07-02T07:55:12;95556.44;;;22.50;71.28
56038;BME280;41907;47.848;9.000;2023-07-02T07:57:38;95563.06;;;22.46;71.97
56038;BME280;41907;47.848;9.000;2023-07-02T08:00:03;95559.56;;;22.52;70.89
56038;BME280;41907;47.848;9.000;2023-07-02T08:02:30;95560.34;;;22.46;69.93
56038;BME280;41907;47.848;9.000;2023-07-02T08:04:55;95559.16;;;22.43;71.34
56038;BME280;41907;47.848;9.000;2023-07-02T08:07:21;95560.34;;;22.42;71.02
56038;BME280;41907;47.848;9.000;2023-07-02T08:09:46;95556.06;;;22.41;67.97
56038;BME280;41907;47.848;9.000;2023-07-02T08:12:11;95557.59;;;22.49;69.36
56038;BME280;41907;47.848;9.000;2023-07-02T08:14:36;95549.09;;;22.83;69.54
56038;BME280;41907;47.848;9.000;2023-07-02T08:17:02;95556.09;;;22.80;67.81
56038;BME280;41907;47.848;9.000;2023-07-02T08:19:27;95549.44;;;23.06;67.16
56038;BME280;41907;47.848;9.000;2023-07-02T08:21:52;95563.78;;;23.21;64.81
56038;BME280;41907;47.848;9.000;2023-07-02T08:24:17;95560.94;;;23.60;63.95
56038;BME280;41907;47.848;9.000;2023-07-02T08:26:43;95557.72;;;23.86;61.41
56038;BME280;41907;47.848;9.000;2023-07-02T08:29:09;95567.81;;;23.96;63.43
56038;BME280;41907;47.848;9.000;2023-07-02T08:31:35;95569.25;;;24.15;60.77
56038;BME280;41907;47.848;9.000;2023-07-02T08:34:00;95567.41;;;24.57;57.91
56038;BME280;41907;47.848;9.000;2023-07-02T08:36:25;95567.56;;;24.87;58.25
56038;BME280;41907;47.848;9.000;2023-07-02T08:38:51;95560.09;;;24.95;57.22
56038;BME280;41907;47.848;9.000;2023-07-02T08:41:16;95556.00;;;25.17;58.03
56038;BME280;41907;47.848;9.000;2023-07-02T08:43:41;95565.94;;;25.34;55.52
56038;BME280;41907;47.848;9.000;2023-07-02T08:46:08;95557.41;;;24.88;54.92
56038;BME280;41907;47.848;9.000;2023-07-02T08:48:36;95546.44;;;24.98;54.40
56038;BME280;41907;47.848;9.000;2023-07-02T08:51:02;95555.25;;;25.13;54.62
56038;BME280;41907;47.848;9.000;2023-07-02T08:53:27;95552.72;;;25.29;53.56
56038;BME280;41907;47.848;9.000;2023-07-02T08:55:58;95554.63;;;24.98;54.96
56038;BME280;41907;47.848;9.000;2023-07-02T08:58:24;95554.50;;;25.46;53.66
56038;BME280;41907;47.848;9.000;2023-07-02T09:01:05;95558.66;;;25.20;53.31
56038;BME280;41907;47.848;9.000;2023-07-02T09:03:33;95559.22;;;25.76;53.53
56038;BME280;41907;47.848;9.000;2023-07-02T09:05:59;95556.59;;;24.94;55.03
56038;BME280;41907;47.848;9.000;2023-07-02T09:08:27;95561.66;;;24.96;55.98
56038;BME280;41907;47.848;9.000;2023-07-02T09:10:53;95567.88;;;24.48;56.49
56038;BME280;41907;47.848;9.000;2023-07-02T09:13:18;95560.03;;;23.91;58.13
56038;BME280;41907;47.848;9.000;2023-07-02T09:15:43;95562.63;;;24.13;56.93
56038;BME280;41907;47.848;9.000;2023-07-02T09:20:40;95561.97;;;24.57;55.79
56038;BME280;41907;47.848;9.000;2023-07-02T09:23:05;95556.34;;;24.19;56.38
56038;BME280;41907;47.848;9.000;2023-07-02T09:25:36;95558.28;;;24.77;56.68
56038;BME280;41907;47.848;9.000;2023-07-02T09:28:01;95557.88;;;24.31;54.84
56038;BME280;41907;47.848;9.000;2023-07-02T09:30:27;95562.09;;;24.91;55.40
56038;BME280;41907;47.848;9.000;2023-07-02T09:32:52;95559.13;;;25.15;53.28
56038;BME280;41907;47.848;9.000;2023-07-02T09:35:19;95566.16;;;25.50;52.84
56038;BME280;41907;47.848;9.000;2023-07-02T09:37:45;95562.47;;;25.68;51.14
56038;BME280;41907;47.848;9.000;2023-07-02T09:40:11;95567.75;;;25.82;51.66
56038;BME280;41907;47.848;9.000;2023-07-02T09:42:37;95563.41;;;25.50;52.84
56038;BME280;41907;47.848;9.000;2023-07-02T09:45:04;95555.69;;;25.08;54.62
56038;BME280;41907;47.848;9.000;2023-07-02T09:47:32;95552.13;;;25.14;53.89
56038;BME280;41907;47.848;9.000;2023-07-02T09:50:02;95557.78;;;25.68;52.14
56038;BME280;41907;47.848;9.000;2023-07-02T09:52:28;95550.88;;;24.81;51.71
56038;BME280;41907;47.848;9.000;2023-07-02T09:54:54;95551.69;;;24.16;54.55
56038;BME280;41907;47.848;9.000;2023-07-02T09:57:19;95553.59;;;23.53;56.56
56038;BME280;41907;47.848;9.000;2023-07-02T09:59:44;95548.44;;;23.73;58.04
56038;BME280;41907;47.848;9.000;2023-07-02T10:02:10;95551.22;;;23.62;56.37
56038;BME280;41907;47.848;9.000;2023-07-02T10:04:41;95551.72;;;23.22;58.20
56038;BME280;41907;47.848;9.000;2023-07-02T10:07:07;95543.59;;;23.11;59.76
56038;BME280;41907;47.848;9.000;2023-07-02T10:09:36;95556.06;;;22.98;60.47
56038;BME280;41907;47.848;9.000;2023-07-02T10:12:02;95549.44;;;22.95;58.70
56038;BME280;41907;47.848;9.000;2023-07-02T10:14:37;95554.88;;;22.99;59.04
56038;BME280;41907;47.848;9.000;2023-07-02T10:17:04;95555.25;;;23.08;60.06
56038;BME280;41907;47.848;9.000;2023-07-02T10:19:30;95543.63;;;22.61;60.16
56038;BME280;41907;47.848;9.000;2023-07-02T10:22:02;95545.19;;;22.80;60.66
56038;BME280;41907;47.848;9.000;2023-07-02T10:24:28;95538.94;;;23.05;60.18
56038;BME280;41907;47.848;9.000;2023-07-02T10:26:58;95549.69;;;23.54;58.56
56038;BME280;41907;47.848;9.000;2023-07-02T10:29:24;95537.72;;;23.30;58.80
56038;BME280;41907;47.848;9.000;2023-07-02T10:31:50;95547.31;;;23.67;57.49
56038;BME280;41907;47.848;9.000;2023-07-02T10:34:16;95556.03;;;24.06;58.35
56038;BME280;41907;47.848;9.000;2023-07-02T10:36:55;95542.56;;;23.85;56.53
56038;BME280;41907;47.848;9.000;2023-07-02T10:39:20;95540.41;;;23.34;56.93
56038;BME280;41907;47.848;9.000;2023-07-02T10:41:46;95543.47;;;23.57;56.62
56038;BME280;41907;47.848;9.000;2023-07-02T10:44:11;95538.66;;;23.86;56.00
56038;BME280;41907;47.848;9.000;2023-07-02T10:46:46;95535.19;;;23.82;57.70
56038;BME280;41907;47.848;9.000;2023-07-02T10:49:11;95536.31;;;24.51;54.82
56038;BME280;41907;47.848;9.000;2023-07-02T10:51:37;95542.63;;;24.37;55.26
56038;BME280;41907;47.848;9.000;2023-07-02T10:54:02;95541.75;;;24.51;55.13
56038;BME280;41907;47.848;9.000;2023-07-02T10:56:31;95537.22;;;24.33;53.61
56038;BME280;41907;47.848;9.000;2023-07-02T10:58:57;95534.84;;;24.35;53.42
56038;BME280;41907;47.848;9.000;2023-07-02T11:01:29;95535.78;;;24.07;54.70
56038;BME280;41907;47.848;9.000;2023-07-02T11:03:55;95545.91;;;24.10;56.27
56038;BME280;41907;47.848;9.000;2023-07-02T11:06:20;95536.63;;;24.60;54.32
56038;BME280;41907;47.848;9.000;2023-07-02T11:08:46;95539.78;;;24.55;52.84
56038;BME280;41907;47.848;9.000;2023-07-02T11:11:11;95541.97;;;24.22;54.28
56038;BME280;41907;47.848;9.000;2023-07-02T11:13:43;95540.28;;;24.42;54.64
56038;BME280;41907;47.848;9.000;2023-07-02T11:16:26;95535.47;;;24.57;55.35
56038;BME280;41907;47.848;9.000;2023-07-02T11:18:52;95542.41;;;24.65;54.85
56038;BME280;41907;47.848;9.000;2023-07-02T11:21:17;95521.19;;;24.87;51.84
56038;BME280;41907;47.848;9.000;2023-07-02T11:23:42;95529.59;;;25.07;53.33
56038;BME280;41907;47.848;9.000;2023-07-02T11:26:08;95534.28;;;25.40;51.45
56038;BME280;41907;47.848;9.000;2023-07-02T11:28:33;95537.56;;;25.58;52.60
56038;BME280;41907;47.848;9.000;2023-07-02T11:31:00;95527.16;;;25.84;50.08
56038;BME280;41907;47.848;9.000;2023-07-02T11:33:37;95531.47;;;26.08;51.91
56038;BME280;41907;47.848;9.000;2023-07-02T11:36:03;95520.81;;;26.17;51.29
56038;BME280;41907;47.848;9.000;2023-07-02T11:38:28;95521.44;;;25.71;50.47
56038;BME280;41907;47.848;9.000;2023-07-02T11:40:54;95515.84;;;26.09;51.98
56038;BME280;41907;47.848;9.000;2023-07-02T11:43:19;95512.19;;;25.92;51.19
56038;BME280;41907;47.848;9.000;2023-07-02T11:45:44;95522.75;;;26.44;50.68
56038;BME280;41907;47.848;9.000;2023-07-02T11:48:09;95522.44;;;26.65;49.67
56038;BME280;41907;47.848;9.000;2023-07-02T11:50:35;95514.81;;;26.76;48.08
56038;BME280;41907;47.848;9.000;2023-07-02T11:53:00;95514.75;;;27.03;47.65
56038;BME280;41907;47.848;9.000;2023-07-02T11:55:25;95517.41;;;26.83;47.65
56038;BME280;41907;47.848;9.000;2023-07-02T11:57:50;95509.94;;;26.64;47.01
56038;BME280;41907;47.848;9.000;2023-07-02T12:00:16;95510.41;;;26.36;48.74
56038;BME280;41907;47.848;9.000;2023-07-02T12:02:41;95523.94;;;26.16;48.58
56038;BME280;41907;47.848;9.000;2023-07-02T12:05:06;95517.22;;;25.67;47.98
56038;BME280;41907;47.848;9.000;2023-07-02T12:07:32;95517.66;;;25.28;50.84
56038;BME280;41907;47.848;9.000;2023-07-02T12:09:57;95514.28;;;25.81;49.97
56038;BME280;41907;47.848;9.000;2023-07-02T12:12:22;95513.25;;;26.28;50.88
56038;BME280;41907;47.848;9.000;2023-07-02T12:14:47;95516.88;;;26.45;49.51
56038;BME280;41907;47.848;9.000;2023-07-02T12:17:13;95507.91;;;26.18;52.59
56038;BME280;41907;47.848;9.000;2023-07-02T12:19:38;95509.88;;;26.17;50.58
56038;BME280;41907;47.848;9.000;2023-07-02T12:22:04;95499.66;;;26.21;48.85
56038;BME280;41907;47.848;9.000;2023-07-02T12:24:29;95502.06;;;26.16;48.98
56038;BME280;41907;47.848;9.000;2023-07-02T12:26:55;95505.69;;;26.36;48.61
56038;BME280;41907;47.848;9.000;2023-07-02T12:29:20;95510.78;;;26.07;48.31
56038;BME280;41907;47.848;9.000;2023-07-02T12:31:45;95511.00;;;25.93;51.05
56038;BME280;41907;47.848;9.000;2023-07-02T12:34:10;95503.50;;;26.27;48.60
56038;BME280;41907;47.848;9.000;2023-07-02T12:36:36;95502.91;;;26.40;48.94
56038;BME280;41907;47.848;9.000;2023-07-02T12:39:01;95505.47;;;26.23;50.39
56038;BME280;41907;47.848;9.000;2023-07-02T12:41:26;95494.19;;;26.48;47.28
56038;BME280;41907;47.848;9.000;2023-07-02T12:43:53;95502.03;;;26.70;46.54
56038;BME280;41907;47.848;9.000;2023-07-02T12:46:18;95506.97;;;26.32;48.53
56038;BME280;41907;47.848;9.000;2023-07-02T12:48:43;95511.69;;;25.70;48.31
56038;BME280;41907;47.848;9.000;2023-07-02T12:51:09;95505.56;;;25.59;48.44